Kittanning, Pennsylvania
Current Conditions -  °F | °C
As of 6:15 PM on Saturday 25 Oct 2014 (Local Time) from KBTP Reporting Station
Broken Clouds Broken Clouds  
Wind Chill: 63°   Ceiling: 5500
Heat Index: 63°   Visibility: 10mi
Dew Point: 50°   Wind: 12mph
Humidity: 63%   Direction: 230°SW
Pressure: 29.76"   Gusts: 16mph
Location:  40.81°N, 79.52°W
Report Text: KBTP 252215Z AUTO 23010G14KT 10SM SCT046 BKN055 17/10 A2976 RMK AO1
Loading
Personal Weather Stations






























Interactive Weather Map
Tropical Storm Tracking
New forecast layout! Learn more

10-Day Weather Forecast

Advertisements
Track Severe Weather on mobile